createdAt,value
2022-08-03T00:00:27.181Z,20.67
2022-08-03T00:02:54.239Z,20.63
2022-08-03T00:05:21.476Z,20.61
2022-08-03T00:07:49.542Z,20.52
2022-08-03T00:10:17.456Z,20.44
2022-08-03T00:12:44.530Z,20.40
2022-08-03T00:15:16.705Z,20.35
2022-08-03T00:17:53.051Z,20.36
2022-08-03T00:20:22.384Z,20.30
2022-08-03T00:22:50.273Z,20.25
2022-08-03T00:25:17.851Z,20.20
2022-08-03T00:27:44.681Z,20.16
2022-08-03T00:30:11.726Z,20.12
2022-08-03T00:32:41.389Z,20.07
2022-08-03T00:35:18.043Z,20.06
2022-08-03T00:37:54.853Z,20.09
2022-08-03T00:40:22.503Z,20.04
2022-08-03T00:43:08.989Z,20.05
2022-08-03T00:45:40.402Z,20.06
2022-08-03T00:48:29.679Z,20.05
2022-08-03T00:50:57.326Z,20.03
2022-08-03T00:53:25.684Z,20.03
2022-08-03T00:55:52.872Z,20.05
2022-08-03T00:58:20.387Z,20.05
2022-08-03T01:00:47.319Z,20.05
2022-08-03T01:03:14.213Z,20.06
2022-08-03T01:06:02.616Z,20.04
2022-08-03T01:08:55.299Z,20.02
2022-08-03T01:12:23.146Z,19.99
2022-08-03T01:15:14.004Z,20.04
2022-08-03T01:17:51.074Z,20.03
2022-08-03T01:20:21.599Z,20.05
2022-08-03T01:23:54.705Z,20.03
2022-08-03T01:26:53.476Z,20.03
2022-08-03T01:29:50.575Z,20.06
2022-08-03T01:33:02.941Z,20.06
2022-08-03T01:35:14.952Z,20.09
2022-08-03T01:37:51.525Z,20.09
2022-08-03T01:40:21.461Z,20.09
2022-08-03T01:42:49.628Z,20.06
2022-08-03T01:45:18.814Z,20.02
2022-08-03T01:47:47.473Z,20.02
2022-08-03T01:50:16.001Z,20.04
2022-08-03T01:52:47.109Z,20.08
2022-08-03T01:55:17.957Z,20.06
2022-08-03T01:58:04.827Z,20.08
2022-08-03T02:00:36.549Z,20.07
2022-08-03T02:03:06.523Z,20.05
2022-08-03T02:05:35.277Z,20.09
2022-08-03T02:08:04.548Z,20.08
2022-08-03T02:10:34.941Z,20.04
2022-08-03T02:13:05.938Z,20.05
2022-08-03T02:15:34.481Z,20.03
2022-08-03T02:18:04.457Z,20.06
2022-08-03T02:20:36.728Z,20.03
2022-08-03T02:23:04.209Z,19.97
2022-08-03T02:25:33.936Z,19.99
2022-08-03T02:28:12.853Z,19.94
2022-08-03T02:30:43.816Z,19.90
2022-08-03T02:33:19.604Z,19.99
2022-08-03T02:35:49.176Z,20.01
2022-08-03T02:38:19.848Z,19.98
2022-08-03T02:40:47.281Z,19.95
2022-08-03T02:43:22.408Z,19.93
2022-08-03T02:45:50.649Z,19.80
2022-08-03T02:48:25.975Z,19.90
2022-08-03T02:50:57.166Z,19.90
2022-08-03T02:53:27.464Z,19.91
2022-08-03T02:55:55.890Z,19.83
2022-08-03T02:58:25.006Z,19.80
2022-08-03T03:00:53.310Z,19.84
2022-08-03T03:03:22.415Z,19.84
2022-08-03T03:05:56.235Z,19.75
2022-08-03T03:08:28.667Z,19.75
2022-08-03T03:11:01.961Z,19.74
2022-08-03T03:13:30.687Z,19.78
2022-08-03T03:16:01.828Z,19.77
2022-08-03T03:18:31.559Z,19.74
2022-08-03T03:21:01.368Z,19.70
2022-08-03T03:23:29.431Z,19.62
2022-08-03T03:25:58.657Z,19.52
2022-08-03T03:28:26.032Z,19.48
2022-08-03T03:30:53.655Z,19.40
2022-08-03T03:33:22.441Z,19.43
2022-08-03T03:35:49.800Z,19.38
2022-08-03T03:38:16.679Z,19.33
2022-08-03T03:40:44.168Z,19.29
2022-08-03T03:43:13.154Z,19.28
2022-08-03T03:45:43.835Z,19.21
2022-08-03T03:48:11.173Z,19.15
2022-08-03T03:50:41.120Z,19.15
2022-08-03T03:53:13.313Z,19.10
2022-08-03T03:56:02.114Z,19.09
2022-08-03T03:58:28.579Z,19.13
2022-08-03T04:00:55.487Z,19.14
2022-08-03T04:03:22.492Z,19.17
2022-08-03T04:06:09.878Z,19.08
2022-08-03T04:08:55.074Z,19.10
2022-08-03T04:11:30.382Z,19.04
2022-08-03T04:14:23.600Z,19.02
2022-08-03T04:16:57.481Z,19.00
2022-08-03T04:19:32.701Z,18.99
2022-08-03T04:22:04.429Z,19.03
2022-08-03T04:24:38.352Z,19.06
2022-08-03T04:27:10.341Z,19.08
2022-08-03T04:29:44.830Z,19.12
2022-08-03T04:32:16.696Z,19.18
2022-08-03T04:34:44.421Z,19.21
2022-08-03T04:37:39.144Z,19.25
2022-08-03T04:40:11.059Z,19.29
2022-08-03T04:42:39.709Z,19.33
2022-08-03T04:45:08.547Z,19.36
2022-08-03T04:47:36.440Z,19.32
2022-08-03T04:50:09.154Z,19.36
2022-08-03T04:52:39.463Z,19.31
2022-08-03T04:55:07.007Z,19.20
2022-08-03T04:57:33.916Z,19.25
2022-08-03T05:00:03.443Z,19.23
2022-08-03T05:02:32.333Z,19.24
2022-08-03T05:05:00.240Z,19.24
2022-08-03T05:07:35.904Z,19.20
2022-08-03T05:10:15.139Z,19.22
2022-08-03T05:12:43.384Z,19.18
2022-08-03T05:15:10.925Z,19.20
2022-08-03T05:17:37.726Z,19.20
2022-08-03T05:20:05.620Z,19.23
2022-08-03T05:22:32.600Z,19.22
2022-08-03T05:25:01.404Z,19.25
2022-08-03T05:27:31.471Z,19.29
2022-08-03T05:30:32.594Z,19.33
2022-08-03T05:32:45.154Z,19.33
2022-08-03T05:36:01.382Z,19.40
2022-08-03T05:37:59.253Z,19.41
2022-08-03T05:40:27.044Z,19.48
2022-08-03T05:42:53.978Z,19.51
2022-08-03T05:45:23.251Z,19.50
2022-08-03T05:47:53.567Z,19.54
2022-08-03T05:50:21.352Z,19.60
2022-08-03T05:52:48.684Z,19.63
2022-08-03T05:55:16.838Z,19.66
2022-08-03T05:57:46.264Z,19.64
2022-08-03T06:00:13.681Z,19.62
2022-08-03T06:02:43.255Z,19.54
2022-08-03T06:05:10.669Z,19.46
2022-08-03T06:07:37.989Z,19.40
2022-08-03T06:10:36.859Z,19.32
2022-08-03T06:12:52.885Z,19.18
2022-08-03T06:15:20.636Z,19.15
2022-08-03T06:17:49.772Z,19.07
2022-08-03T06:20:19.413Z,18.99
2022-08-03T06:22:50.822Z,18.93
2022-08-03T06:25:27.495Z,18.84
2022-08-03T06:27:54.277Z,18.75
2022-08-03T06:30:21.609Z,18.80
2022-08-03T06:32:52.218Z,18.77
2022-08-03T06:35:20.139Z,18.77
2022-08-03T06:37:51.833Z,18.84
2022-08-03T06:40:28.659Z,18.88
2022-08-03T06:43:01.578Z,18.95
2022-08-03T06:45:31.749Z,19.00
2022-08-03T06:48:13.162Z,18.97
2022-08-03T06:50:42.688Z,19.01
2022-08-03T06:53:19.261Z,19.05
2022-08-03T06:55:53.863Z,19.09
2022-08-03T06:58:21.629Z,19.15
2022-08-03T07:00:48.653Z,19.16
2022-08-03T07:03:16.227Z,19.22
2022-08-03T07:05:44.015Z,19.23
2022-08-03T07:08:10.908Z,19.36
2022-08-03T07:10:38.116Z,19.33
2022-08-03T07:13:06.326Z,19.40
2022-08-03T07:15:55.049Z,19.48
2022-08-03T07:18:25.629Z,19.58
2022-08-03T07:20:57.348Z,19.59
2022-08-03T07:23:24.362Z,19.67
2022-08-03T07:25:51.230Z,19.44
2022-08-03T07:28:18.381Z,19.59
2022-08-03T07:30:45.292Z,19.50
2022-08-03T07:33:12.205Z,19.42
2022-08-03T07:35:39.769Z,19.34
2022-08-03T07:38:07.082Z,19.40
2022-08-03T07:40:34.014Z,19.45
2022-08-03T07:43:03.416Z,19.45
2022-08-03T07:45:31.620Z,19.48
2022-08-03T07:47:58.651Z,19.55
2022-08-03T07:50:25.719Z,19.64
2022-08-03T07:52:54.193Z,19.77
2022-08-03T07:55:24.173Z,19.83
2022-08-03T07:58:19.197Z,19.95
2022-08-03T08:00:51.100Z,20.03
2022-08-03T08:03:18.009Z,20.01
2022-08-03T08:05:45.572Z,20.06
2022-08-03T08:08:12.428Z,20.08
2022-08-03T08:10:39.468Z,20.09
2022-08-03T08:13:06.641Z,20.05
2022-08-03T08:15:33.785Z,20.29
2022-08-03T08:18:02.567Z,20.30
2022-08-03T08:20:34.965Z,20.52
2022-08-03T08:23:25.492Z,20.75
2022-08-03T08:25:56.884Z,21.07
2022-08-03T08:28:32.176Z,21.25
2022-08-03T08:31:02.035Z,21.42
2022-08-03T08:33:37.629Z,21.31
2022-08-03T08:36:14.789Z,21.30
2022-08-03T08:38:42.883Z,21.22
2022-08-03T08:41:11.953Z,21.11
2022-08-03T08:43:39.109Z,20.94
2022-08-03T08:46:08.560Z,20.71
2022-08-03T08:48:42.005Z,20.71
2022-08-03T08:51:10.061Z,20.70
2022-08-03T08:53:38.680Z,20.68
2022-08-03T08:56:07.468Z,20.76
2022-08-03T08:58:39.438Z,20.74
2022-08-03T09:01:06.520Z,20.77
2022-08-03T09:03:34.560Z,20.87
2022-08-03T09:06:02.692Z,20.88
2022-08-03T09:08:31.836Z,21.05
2022-08-03T09:10:59.232Z,21.23
2022-08-03T09:13:26.428Z,21.35
2022-08-03T09:16:28.753Z,21.53
2022-08-03T09:18:55.843Z,21.47
2022-08-03T09:21:34.655Z,21.56
2022-08-03T09:24:06.132Z,21.44
2022-08-03T09:26:38.279Z,21.43
2022-08-03T09:29:13.934Z,21.47
2022-08-03T09:31:46.143Z,21.45
2022-08-03T09:34:16.631Z,21.64
2022-08-03T09:36:49.694Z,21.73
2022-08-03T09:39:41.770Z,21.86
2022-08-03T09:42:15.670Z,21.96
2022-08-03T09:44:49.116Z,22.05
2022-08-03T09:47:37.756Z,22.20
2022-08-03T09:50:13.086Z,22.43
2022-08-03T09:52:49.344Z,22.57
2022-08-03T09:56:30.512Z,22.69
2022-08-03T09:58:10.661Z,22.68
2022-08-03T10:01:24.307Z,22.84
2022-08-03T10:04:04.483Z,23.12
2022-08-03T10:06:32.389Z,23.40
2022-08-03T10:09:17.409Z,23.63
2022-08-03T10:11:47.001Z,23.73
2022-08-03T10:14:20.114Z,23.83
2022-08-03T10:16:49.360Z,23.95
2022-08-03T10:19:17.035Z,23.86
2022-08-03T10:21:55.607Z,23.99
2022-08-03T10:24:27.406Z,24.13
2022-08-03T10:27:04.684Z,24.19
2022-08-03T10:29:39.055Z,24.19
2022-08-03T10:32:16.170Z,24.07
2022-08-03T10:34:45.307Z,24.00
2022-08-03T10:37:16.395Z,23.83
2022-08-03T10:39:54.497Z,23.75
2022-08-03T10:42:24.943Z,23.75
2022-08-03T10:45:06.351Z,23.78
2022-08-03T10:47:36.428Z,23.80
2022-08-03T10:50:04.332Z,23.80
2022-08-03T10:52:32.981Z,23.80
2022-08-03T10:55:21.392Z,23.89
2022-08-03T10:57:58.845Z,24.10
2022-08-03T11:00:30.287Z,24.27
2022-08-03T11:03:04.489Z,24.39
2022-08-03T11:05:37.028Z,24.58
2022-08-03T11:08:28.375Z,24.82
2022-08-03T11:11:19.885Z,24.84
2022-08-03T11:14:10.434Z,24.94
2022-08-03T11:16:48.442Z,24.96
2022-08-03T11:19:20.254Z,25.06
2022-08-03T11:21:51.213Z,25.12
2022-08-03T11:24:36.547Z,25.23
2022-08-03T11:27:18.999Z,25.28
2022-08-03T11:30:02.140Z,25.23
2022-08-03T11:32:37.621Z,25.21
2022-08-03T11:35:09.338Z,25.06
2022-08-03T11:37:37.464Z,24.90
2022-08-03T11:40:06.355Z,24.91
2022-08-03T11:42:36.693Z,24.81
2022-08-03T11:45:08.426Z,24.67
2022-08-03T11:47:50.125Z,24.71
2022-08-03T11:50:19.373Z,24.85
2022-08-03T11:52:46.356Z,24.91
2022-08-03T11:55:17.059Z,25.03
2022-08-03T11:59:02.757Z,25.09
2022-08-03T12:00:33.735Z,25.22
2022-08-03T12:03:04.964Z,25.27
2022-08-03T12:05:51.403Z,25.32
2022-08-03T12:08:39.423Z,25.42
2022-08-03T12:11:09.116Z,25.42
2022-08-03T12:14:45.351Z,25.62
2022-08-03T12:16:38.293Z,25.59
2022-08-03T12:19:09.418Z,25.51
2022-08-03T12:21:57.298Z,25.52
2022-08-03T12:24:24.785Z,25.57
2022-08-03T12:26:59.572Z,25.55
2022-08-03T12:29:27.524Z,25.41
2022-08-03T12:31:56.083Z,25.14
2022-08-03T12:34:23.301Z,25.13
2022-08-03T12:36:56.695Z,25.08
2022-08-03T12:39:26.481Z,25.11
2022-08-03T12:41:55.348Z,25.21
2022-08-03T12:44:35.471Z,25.16
2022-08-03T12:47:06.788Z,25.16
2022-08-03T12:50:06.293Z,25.19
2022-08-03T12:52:45.229Z,25.31
2022-08-03T12:55:21.809Z,25.41
2022-08-03T12:57:49.469Z,25.53
2022-08-03T13:00:28.978Z,25.58
2022-08-03T13:05:54.337Z,25.85
2022-08-03T13:08:23.990Z,25.89
2022-08-03T13:10:51.806Z,25.84
2022-08-03T13:13:20.916Z,25.79
2022-08-03T13:15:48.347Z,25.95
2022-08-03T13:18:17.551Z,26.01
2022-08-03T13:20:44.731Z,25.98
2022-08-03T13:23:15.514Z,25.90
2022-08-03T13:25:55.102Z,26.04
2022-08-03T13:28:23.498Z,26.12
2022-08-03T13:30:50.434Z,26.21
2022-08-03T13:33:18.048Z,26.19
2022-08-03T13:35:45.300Z,26.22
2022-08-03T13:38:12.230Z,26.26
2022-08-03T13:40:42.132Z,26.19
2022-08-03T13:43:09.196Z,26.29
2022-08-03T13:45:36.171Z,26.27
2022-08-03T13:48:03.044Z,26.38
2022-08-03T13:50:31.713Z,26.52
2022-08-03T13:52:58.730Z,26.51
2022-08-03T13:55:25.992Z,26.50
2022-08-03T13:58:04.970Z,26.51
2022-08-03T14:00:34.730Z,26.57
2022-08-03T14:03:12.572Z,26.58
2022-08-03T14:05:41.681Z,26.43
2022-08-03T14:08:09.487Z,26.44
2022-08-03T14:10:38.856Z,26.42
2022-08-03T14:13:06.778Z,26.49
2022-08-03T14:15:37.557Z,26.63
2022-08-03T14:18:05.087Z,26.62
2022-08-03T14:20:38.868Z,26.58
2022-08-03T14:23:15.842Z,26.57
2022-08-03T14:25:50.480Z,26.61
2022-08-03T14:28:28.866Z,26.51
2022-08-03T14:30:58.851Z,26.29
2022-08-03T14:33:25.810Z,26.11
2022-08-03T14:35:53.571Z,26.15
2022-08-03T14:38:21.559Z,26.10
2022-08-03T14:40:49.452Z,26.29
2022-08-03T14:43:18.243Z,26.38
2022-08-03T14:45:45.268Z,26.19
2022-08-03T14:50:32.311Z,26.23
2022-08-03T14:50:59.890Z,26.32
2022-08-03T14:53:26.871Z,26.25
2022-08-03T14:55:53.779Z,26.16
2022-08-03T14:58:23.115Z,26.28
2022-08-03T15:00:55.596Z,26.17
2022-08-03T15:03:25.074Z,26.10
2022-08-03T15:05:56.970Z,26.10
2022-08-03T15:08:25.756Z,26.25
2022-08-03T15:10:54.432Z,26.32
2022-08-03T15:13:22.421Z,26.17
2022-08-03T15:15:50.076Z,26.03
2022-08-03T15:18:17.715Z,25.97
2022-08-03T15:20:46.390Z,26.00
2022-08-03T15:23:15.778Z,25.96
2022-08-03T15:26:27.884Z,26.01
2022-08-03T15:28:34.289Z,26.10
2022-08-03T15:31:04.882Z,26.08
2022-08-03T15:33:31.783Z,26.11
2022-08-03T15:36:00.150Z,26.14
2022-08-03T15:38:27.144Z,26.32
2022-08-03T15:40:55.327Z,26.37
2022-08-03T15:43:23.410Z,26.50
2022-08-03T15:46:12.702Z,26.35
2022-08-03T15:48:38.113Z,26.54
2022-08-03T15:51:05.637Z,26.37
2022-08-03T15:53:33.784Z,26.45
2022-08-03T15:56:03.292Z,26.44
2022-08-03T15:59:09.574Z,26.33
2022-08-03T16:01:20.645Z,26.26
2022-08-03T16:03:47.591Z,26.15
2022-08-03T16:06:14.535Z,26.13
2022-08-03T16:08:41.363Z,26.06
2022-08-03T16:11:11.812Z,25.99
2022-08-03T16:14:12.810Z,25.86
2022-08-03T16:16:25.669Z,25.86
2022-08-03T16:18:52.820Z,25.85
2022-08-03T16:21:21.660Z,25.93
2022-08-03T16:23:49.038Z,25.91
2022-08-03T16:26:15.928Z,25.86
2022-08-03T16:28:42.760Z,25.82
2022-08-03T16:31:09.775Z,25.75
2022-08-03T16:33:37.314Z,25.78
2022-08-03T16:36:04.390Z,25.76
2022-08-03T16:38:31.698Z,25.68
2022-08-03T16:40:58.634Z,25.70
2022-08-03T16:43:25.921Z,25.79
2022-08-03T16:45:53.156Z,25.74
2022-08-03T16:48:20.213Z,25.74
2022-08-03T16:50:49.125Z,25.73
2022-08-03T16:53:16.918Z,25.73
2022-08-03T16:55:53.193Z,25.75
2022-08-03T16:58:42.689Z,25.80
2022-08-03T17:01:22.098Z,25.84
2022-08-03T17:04:03.034Z,25.91
2022-08-03T17:06:36.462Z,25.86
2022-08-03T17:09:19.069Z,25.79
2022-08-03T17:11:50.795Z,25.74
2022-08-03T17:14:22.875Z,25.47
2022-08-03T17:17:03.713Z,25.49
2022-08-03T17:19:32.808Z,25.59
2022-08-03T17:22:08.570Z,25.52
2022-08-03T17:24:42.380Z,25.60
2022-08-03T17:28:42.346Z,25.63
2022-08-03T17:30:11.972Z,25.65
2022-08-03T17:32:52.674Z,25.55
2022-08-03T17:35:36.600Z,25.56
2022-08-03T17:38:10.411Z,25.51
2022-08-03T17:40:48.059Z,25.36
2022-08-03T17:44:12.901Z,25.51
2022-08-03T17:46:07.139Z,25.28
2022-08-03T17:48:34.705Z,25.25
2022-08-03T17:51:50.176Z,25.05
2022-08-03T17:55:55.502Z,24.87
2022-08-03T17:58:04.515Z,24.79
2022-08-03T18:00:51.708Z,24.77
2022-08-03T18:03:57.054Z,24.60
2022-08-03T18:06:31.480Z,24.46
2022-08-03T18:08:59.970Z,24.46
2022-08-03T18:11:37.130Z,24.46
2022-08-03T18:14:33.894Z,24.26
2022-08-03T18:17:10.455Z,24.24
2022-08-03T18:20:02.081Z,24.13
2022-08-03T18:22:27.757Z,24.06
2022-08-03T18:24:59.739Z,23.91
2022-08-03T18:27:45.425Z,23.88
2022-08-03T18:30:16.123Z,23.71
2022-08-03T18:32:44.390Z,23.58
2022-08-03T18:35:28.613Z,23.33
2022-08-03T18:38:16.795Z,23.28
2022-08-03T18:40:49.198Z,23.10
2022-08-03T18:43:17.705Z,23.03
2022-08-03T18:45:57.614Z,22.74
2022-08-03T18:48:49.281Z,22.69
2022-08-03T18:51:33.809Z,22.36
2022-08-03T18:54:46.578Z,22.34
2022-08-03T18:57:13.496Z,22.20
2022-08-03T19:00:16.429Z,22.02
2022-08-03T19:03:05.954Z,22.05
2022-08-03T19:05:56.266Z,21.93
2022-08-03T19:08:48.347Z,21.79
2022-08-03T19:12:12.593Z,21.77
2022-08-03T19:14:39.285Z,21.73
2022-08-03T19:17:12.277Z,21.57
2022-08-03T19:19:45.296Z,21.51
2022-08-03T19:22:15.982Z,21.48
2022-08-03T19:24:46.492Z,21.34
2022-08-03T19:27:16.450Z,21.39
2022-08-03T19:29:58.780Z,21.31
2022-08-03T19:32:33.068Z,21.34
2022-08-03T19:35:02.638Z,21.19
2022-08-03T19:37:37.983Z,21.19
2022-08-03T19:40:10.438Z,21.11
2022-08-03T19:42:45.208Z,21.01
2022-08-03T19:45:20.675Z,20.98
2022-08-03T19:47:59.602Z,20.81
2022-08-03T19:50:30.074Z,20.76
2022-08-03T19:53:00.735Z,20.65
2022-08-03T19:55:32.257Z,20.67
2022-08-03T19:58:01.411Z,20.60
2022-08-03T20:00:34.025Z,20.58
2022-08-03T20:03:06.838Z,20.39
2022-08-03T20:05:51.888Z,20.40
2022-08-03T20:08:22.167Z,20.37
2022-08-03T20:10:50.055Z,20.33
2022-08-03T20:13:19.619Z,20.17
2022-08-03T20:15:46.880Z,20.22
2022-08-03T20:18:16.815Z,20.13
2022-08-03T20:20:49.476Z,20.07
2022-08-03T20:23:20.357Z,20.04
2022-08-03T20:28:51.278Z,19.92
2022-08-03T20:31:23.819Z,19.90
2022-08-03T20:34:00.672Z,19.85
2022-08-03T20:36:28.005Z,19.77
2022-08-03T20:38:57.705Z,19.75
2022-08-03T20:41:25.311Z,19.73
2022-08-03T20:43:52.349Z,19.67
2022-08-03T20:46:32.105Z,19.69
2022-08-03T20:49:04.929Z,19.64
2022-08-03T20:51:49.926Z,19.63
2022-08-03T20:54:30.491Z,19.61
2022-08-03T20:57:03.893Z,19.46
2022-08-03T20:59:47.162Z,19.52
2022-08-03T21:02:28.901Z,19.52
2022-08-03T21:04:56.501Z,19.50
2022-08-03T21:07:24.941Z,19.46
2022-08-03T21:10:15.381Z,19.38
2022-08-03T21:13:12.823Z,19.22
2022-08-03T21:13:13.182Z,20.04
2022-08-03T21:16:06.139Z,19.17
2022-08-03T21:18:32.755Z,19.08
2022-08-03T21:21:01.332Z,19.12
2022-08-03T21:23:40.269Z,19.05
2022-08-03T21:26:19.041Z,19.01
2022-08-03T21:28:49.014Z,18.92
2022-08-03T21:31:22.367Z,18.92
2022-08-03T21:34:04.649Z,18.85
2022-08-03T21:36:36.152Z,18.79
2022-08-03T21:39:08.205Z,18.75
2022-08-03T21:41:38.503Z,18.65
2022-08-03T21:44:07.317Z,18.66
2022-08-03T21:46:38.018Z,18.62
2022-08-03T21:50:05.120Z,18.54
2022-08-03T21:52:00.335Z,18.44
2022-08-03T21:54:41.961Z,18.38
2022-08-03T21:57:41.875Z,18.30
2022-08-03T22:00:17.832Z,18.24
2022-08-03T22:02:54.511Z,18.12
2022-08-03T22:05:28.919Z,18.14
2022-08-03T22:08:04.560Z,18.10
2022-08-03T22:10:31.616Z,18.09
2022-08-03T22:12:58.627Z,18.05
2022-08-03T22:15:25.712Z,17.96
2022-08-03T22:17:55.173Z,17.95
2022-08-03T22:20:25.231Z,17.97
2022-08-03T22:22:56.612Z,17.85
2022-08-03T22:25:36.691Z,17.79
2022-08-03T22:28:10.180Z,17.73
2022-08-03T22:30:38.678Z,17.69
2022-08-03T22:33:11.692Z,17.64
2022-08-03T22:35:50.193Z,17.61
2022-08-03T22:38:19.166Z,17.57
2022-08-03T22:40:49.111Z,17.56
2022-08-03T22:43:16.901Z,17.50
2022-08-03T22:46:09.292Z,17.49
2022-08-03T22:48:40.978Z,17.45
2022-08-03T22:51:09.230Z,17.45
2022-08-03T22:53:36.822Z,17.40
2022-08-03T22:56:04.032Z,17.39
2022-08-03T22:58:30.888Z,17.34
2022-08-03T23:01:10.558Z,17.34
2022-08-03T23:03:59.877Z,17.32
2022-08-03T23:06:42.794Z,17.28
2022-08-03T23:09:13.563Z,17.28
2022-08-03T23:11:46.019Z,17.27
2022-08-03T23:14:16.108Z,17.26
2022-08-03T23:16:45.442Z,17.26
2022-08-03T23:19:17.058Z,17.22
2022-08-03T23:22:02.370Z,17.19
2022-08-03T23:24:34.217Z,17.11
2022-08-03T23:27:06.957Z,17.02
2022-08-03T23:29:42.647Z,16.99
2022-08-03T23:32:10.850Z,16.95
2022-08-03T23:34:58.689Z,16.92
2022-08-03T23:37:26.519Z,16.89
2022-08-03T23:39:55.072Z,16.86
2022-08-03T23:42:22.004Z,16.79
2022-08-03T23:44:55.724Z,16.75
2022-08-03T23:47:23.737Z,16.73
2022-08-03T23:49:50.723Z,16.65
2022-08-03T23:52:53.645Z,16.67
2022-08-03T23:55:44.737Z,16.58
2022-08-03T23:59:02.781Z,16.52
